Time;durP1;ratioP1;P1;durP2;ratioP2;P2;SDS_P1;SDS_P2;PMS_P1;PMS_P2;Temp;Humidity;BMP_temperature;BMP_pressure;BME280_temperature;BME280_humidity;BME280_pressure;Samples;Min_cycle;Max_cycle;Signal;HPM_P1;HPM_P2
2020/12/12 00:00:53;;;;;;;25.87;16.07;;;;;;;0.16;79.73;98991.44;5039425;28;20096;-73
2020/12/12 00:03:19;;;;;;;27.43;16.57;;;;;;;0.13;80.09;98989.66;5032816;28;20080;-74
2020/12/12 00:05:44;;;;;;;23.83;16.03;;;;;;;0.04;80.42;98983.50;5039157;28;20036;-73
2020/12/12 00:08:09;;;;;;;23.50;15.57;;;;;;;-0.07;80.92;98988.56;5039190;28;20037;-73
2020/12/12 00:10:34;;;;;;;24.10;15.23;;;;;;;-0.10;80.35;98988.53;5039395;28;20041;-74
2020/12/12 00:13:00;;;;;;;26.70;17.57;;;;;;;-0.05;80.95;98984.28;5042356;28;20048;-74
2020/12/12 00:15:25;;;;;;;24.17;15.87;;;;;;;-0.02;80.59;98986.91;5024630;28;20043;-74
2020/12/12 00:17:50;;;;;;;27.17;18.60;;;;;;;0.01;80.41;98994.72;5039697;28;20492;-74
2020/12/12 00:20:16;;;;;;;26.37;17.77;;;;;;;0.01;80.75;98996.44;5038927;28;20025;-74
2020/12/12 00:22:41;;;;;;;23.57;16.07;;;;;;;-0.01;79.96;99002.47;5040167;28;20041;-74
2020/12/12 00:25:08;;;;;;;24.40;14.93;;;;;;;-0.02;80.18;98999.88;5042499;28;20029;-74
2020/12/12 00:27:34;;;;;;;28.17;16.40;;;;;;;-0.06;80.47;98998.94;5042076;28;20029;-73
2020/12/12 00:29:59;;;;;;;30.73;17.00;;;;;;;-0.10;80.33;98996.31;5038660;28;20073;-74
2020/12/12 00:32:24;;;;;;;31.67;18.60;;;;;;;-0.13;80.45;98994.56;5038741;28;20038;-74
2020/12/12 00:34:49;;;;;;;27.87;16.77;;;;;;;-0.16;80.74;98997.09;5041543;28;20029;-73
2020/12/12 00:37:18;;;;;;;23.70;14.63;;;;;;;-0.17;80.69;98989.31;5042323;28;20439;-73
2020/12/12 00:39:44;;;;;;;28.60;17.93;;;;;;;-0.20;80.54;98990.13;5040445;28;20031;-74
2020/12/12 00:42:09;;;;;;;27.60;17.47;;;;;;;-0.23;80.31;98984.91;5041419;28;20038;-73
2020/12/12 00:44:35;;;;;;;20.93;14.10;;;;;;;-0.24;81.16;98998.72;5055521;28;20081;-74
2020/12/12 00:47:03;;;;;;;25.97;15.90;;;;;;;-0.26;80.59;98997.84;5030175;28;20032;-74
2020/12/12 00:49:29;;;;;;;28.10;17.00;;;;;;;-0.27;80.72;98993.50;5048157;28;20491;-73
2020/12/12 00:51:54;;;;;;;28.87;18.53;;;;;;;-0.27;80.65;98996.09;5061470;28;20029;-74
2020/12/12 00:54:19;;;;;;;26.77;16.17;;;;;;;-0.28;81.40;98994.38;5063961;28;20029;-74
2020/12/12 00:56:45;;;;;;;27.97;15.23;;;;;;;-0.29;80.70;98984.81;5043734;28;20025;-73
2020/12/12 00:59:10;;;;;;;29.27;16.73;;;;;;;-0.29;80.81;98990.00;5042257;28;20029;-73
2020/12/12 01:01:35;;;;;;;25.43;15.70;;;;;;;-0.32;81.00;98990.84;5038065;28;20107;-73
2020/12/12 01:04:01;;;;;;;28.07;16.90;;;;;;;-0.33;80.50;98989.13;5042056;28;20475;-74
2020/12/12 01:06:26;;;;;;;24.60;15.53;;;;;;;-0.36;80.84;98983.91;5042098;28;20561;-73
2020/12/12 01:08:51;;;;;;;24.33;15.27;;;;;;;-0.41;81.08;98990.75;5044815;28;20033;-73
2020/12/12 01:11:18;;;;;;;29.80;17.47;;;;;;;-0.45;81.16;98995.03;5045401;28;20036;-73
2020/12/12 01:13:44;;;;;;;25.47;15.00;;;;;;;-0.45;80.75;98999.31;5025589;28;20052;-73
2020/12/12 01:16:14;;;;;;;28.20;17.87;;;;;;;-0.47;80.53;98999.31;5041898;28;20112;-73
2020/12/12 01:18:41;;;;;;;26.87;17.50;;;;;;;-0.46;80.62;98987.22;5043313;28;20124;-74
2020/12/12 01:21:06;;;;;;;26.60;15.23;;;;;;;-0.44;81.39;98990.72;5045254;28;20514;-74
2020/12/12 01:23:32;;;;;;;24.60;15.20;;;;;;;-0.42;80.40;98993.31;5027066;28;20037;-74
2020/12/12 01:25:58;;;;;;;21.97;13.97;;;;;;;-0.40;80.79;98996.78;5041774;28;20100;-74
2020/12/12 01:28:23;;;;;;;24.63;14.73;;;;;;;-0.38;80.93;98998.56;5041769;28;20041;-74
2020/12/12 01:30:51;;;;;;;23.00;13.33;;;;;;;-0.36;80.98;98988.22;5043718;28;20041;-74
2020/12/12 01:33:17;;;;;;;32.37;18.57;;;;;;;-0.34;80.61;98992.56;5044806;28;20518;-74
2020/12/12 01:35:42;;;;;;;26.90;15.57;;;;;;;-0.32;80.46;98992.56;5043706;28;20040;-73
2020/12/12 01:38:09;;;;;;;24.97;14.93;;;;;;;-0.30;80.38;98996.06;5041507;28;20491;-74
2020/12/12 01:40:34;;;;;;;22.73;13.47;;;;;;;-0.31;80.66;98989.16;5004267;28;20036;-74
2020/12/12 01:42:59;;;;;;;21.87;13.80;;;;;;;-0.31;80.11;98991.75;5031175;28;20037;-73
2020/12/12 01:45:25;;;;;;;23.87;15.23;;;;;;;-0.34;80.98;98989.06;5041334;28;20199;-74
2020/12/12 01:47:51;;;;;;;20.37;12.87;;;;;;;-0.35;80.66;98989.94;5043968;28;20041;-74
2020/12/12 01:50:16;;;;;;;21.97;12.90;;;;;;;-0.40;80.10;98987.28;5044588;28;20094;-74
2020/12/12 01:52:41;;;;;;;22.07;13.13;;;;;;;-0.41;80.53;98987.28;5042910;28;20048;-74
2020/12/12 01:55:07;;;;;;;21.53;13.23;;;;;;;-0.43;80.07;98988.97;5041518;28;20034;-74
2020/12/12 01:57:34;;;;;;;19.23;12.83;;;;;;;-0.42;80.40;98988.13;5041271;28;20029;-74
2020/12/12 01:59:59;;;;;;;24.97;14.53;;;;;;;-0.43;79.94;98987.25;5026200;28;20052;-74
2020/12/12 02:02:26;;;;;;;24.47;15.53;;;;;;;-0.41;79.48;98992.47;5044255;28;20037;-74
2020/12/12 02:04:53;;;;;;;28.50;17.07;;;;;;;-0.46;80.06;98990.66;5023910;28;20043;-73
2020/12/12 02:07:20;;;;;;;23.43;15.00;;;;;;;-0.48;80.60;99000.13;5041035;28;20072;-74
2020/12/12 02:09:46;;;;;;;22.40;14.27;;;;;;;-0.49;80.13;99001.00;5042664;28;20488;-74
2020/12/12 02:12:13;;;;;;;21.10;13.00;;;;;;;-0.46;79.95;99003.63;5044117;28;20476;-73
2020/12/12 02:14:38;;;;;;;22.03;14.90;;;;;;;-0.46;80.41;99001.03;5043187;28;20072;-73
2020/12/12 02:17:05;;;;;;;22.37;13.07;;;;;;;-0.50;80.08;99003.56;5040809;28;20120;-73
2020/12/12 02:19:32;;;;;;;22.03;13.63;;;;;;;-0.54;80.35;99004.38;5040622;28;20036;-74
2020/12/12 02:21:59;;;;;;;18.33;12.27;;;;;;;-0.56;80.87;99004.34;5040605;28;20033;-73
2020/12/12 02:24:25;;;;;;;20.43;12.57;;;;;;;-0.56;80.40;99001.75;5040416;28;20037;-73
2020/12/12 02:26:51;;;;;;;20.23;12.17;;;;;;;-0.54;79.95;98999.19;5043012;28;20503;-74
2020/12/12 02:29:17;;;;;;;19.70;11.90;;;;;;;-0.63;80.39;99002.50;5043923;28;20049;-74
2020/12/12 02:31:43;;;;;;;21.97;13.27;;;;;;;-0.74;80.42;99004.97;5042252;28;20041;-73
2020/12/12 02:34:08;;;;;;;20.23;12.90;;;;;;;-0.70;81.43;99000.72;5040241;28;20041;-73
2020/12/12 02:36:39;;;;;;;22.83;13.27;;;;;;;-0.60;81.31;98997.41;5040720;28;20033;-74
2020/12/12 02:39:07;;;;;;;23.50;14.93;;;;;;;-0.47;81.12;98988.06;5043787;28;20037;-74
2020/12/12 02:41:32;;;;;;;23.03;14.17;;;;;;;-0.38;80.98;98985.59;5043452;28;20052;-74
2020/12/12 02:43:58;;;;;;;19.23;12.17;;;;;;;-0.32;80.48;98990.84;5046027;28;20029;-74
2020/12/12 02:46:23;;;;;;;20.50;13.20;;;;;;;-0.27;81.08;98989.19;5043626;28;20112;-74
2020/12/12 02:48:49;;;;;;;18.43;11.87;;;;;;;-0.21;81.08;98985.78;5023256;28;20047;-74
2020/12/12 02:51:18;;;;;;;19.53;12.87;;;;;;;-0.08;81.18;98992.91;5033236;28;20436;-73
2020/12/12 02:53:47;;;;;;;20.33;12.57;;;;;;;0.02;80.53;98992.97;5038633;28;20028;-74
2020/12/12 02:56:14;;;;;;;21.23;12.97;;;;;;;0.12;80.67;98997.44;5040064;28;20503;-74
2020/12/12 02:58:40;;;;;;;21.90;13.23;;;;;;;0.21;80.59;98997.53;5020143;28;20034;-74
2020/12/12 03:01:06;;;;;;;17.27;11.00;;;;;;;0.28;79.81;98990.66;5039959;28;20261;-74
2020/12/12 03:03:32;;;;;;;20.00;12.77;;;;;;;0.36;79.80;98995.06;5039856;28;20037;-74
2020/12/12 03:05:57;;;;;;;22.77;13.83;;;;;;;0.42;79.67;98987.38;5043253;28;20040;-74
2020/12/12 03:08:22;;;;;;;20.37;12.17;;;;;;;0.50;79.88;98989.16;5043394;28;20502;-74
2020/12/12 03:10:48;;;;;;;17.27;10.27;;;;;;;0.53;79.50;98984.00;5040422;28;20130;-74
2020/12/12 03:13:13;;;;;;;18.97;12.47;;;;;;;0.56;78.72;98989.22;5039296;28;20048;-74
2020/12/12 03:15:38;;;;;;;23.10;14.47;;;;;;;0.60;79.07;98985.78;5040714;28;20037;-74
2020/12/12 03:18:03;;;;;;;18.93;11.83;;;;;;;0.61;79.06;98983.22;5043238;28;20047;-74
2020/12/12 03:20:29;;;;;;;18.67;11.33;;;;;;;0.63;79.49;98975.44;5043053;28;20033;-74
2020/12/12 03:22:54;;;;;;;18.67;11.10;;;;;;;0.65;79.06;98978.91;5039655;28;20037;-74
2020/12/12 03:25:19;;;;;;;19.53;11.83;;;;;;;0.61;79.06;98978.03;5039581;28;20121;-74
2020/12/12 03:27:45;;;;;;;17.43;11.17;;;;;;;0.65;78.86;98986.69;5041481;28;20140;-74
2020/12/12 03:30:10;;;;;;;22.63;13.43;;;;;;;0.67;79.41;98991.91;5042758;28;20033;-74
2020/12/12 03:32:35;;;;;;;18.20;11.30;;;;;;;0.74;79.11;98988.53;5042086;28;20082;-74
2020/12/12 03:35:01;;;;;;;20.43;11.77;;;;;;;0.80;78.88;98984.22;5039439;28;20049;-74
2020/12/12 03:37:26;;;;;;;18.40;11.37;;;;;;;0.84;78.99;98987.75;5017802;28;20095;-74
2020/12/12 03:39:51;;;;;;;20.40;12.93;;;;;;;0.83;79.40;98983.38;5039246;28;20038;-74
2020/12/12 03:42:17;;;;;;;19.70;12.00;;;;;;;0.87;79.07;98985.16;5039084;28;20127;-74
2020/12/12 03:44:42;;;;;;;17.93;10.27;;;;;;;0.90;78.65;98981.72;5040824;28;20116;-74
2020/12/12 03:47:08;;;;;;;17.37;10.73;;;;;;;0.91;78.88;98980.84;5042842;28;20465;-74
2020/12/12 03:49:33;;;;;;;19.53;10.80;;;;;;;0.92;78.56;98982.59;5024672;28;20508;-74
2020/12/12 03:51:59;;;;;;;19.13;10.90;;;;;;;0.92;78.44;98982.59;5030146;28;20521;-74
2020/12/12 03:54:26;;;;;;;18.07;10.90;;;;;;;0.95;78.77;98980.91;5038145;28;20032;-74
2020/12/12 03:56:52;;;;;;;20.67;11.80;;;;;;;1.00;78.17;98980.94;5039826;28;20495;-74
2020/12/12 03:59:17;;;;;;;18.17;10.87;;;;;;;1.04;78.08;98983.53;5039172;28;20078;-74
2020/12/12 04:01:42;;;;;;;16.33;10.23;;;;;;;1.05;78.04;98979.25;5035980;28;20115;-74
2020/12/12 04:04:08;;;;;;;16.50;10.80;;;;;;;1.06;78.42;98971.44;5038906;28;20072;-74
2020/12/12 04:06:33;;;;;;;14.83;9.00;;;;;;;1.07;78.63;98980.09;5039373;28;20061;-74
2020/12/12 04:08:59;;;;;;;15.60;9.73;;;;;;;1.09;78.22;98981.00;5042391;28;20037;-74
2020/12/12 04:11:24;;;;;;;18.97;11.27;;;;;;;1.14;78.15;98979.28;5042560;28;20063;-74
2020/12/12 04:13:49;;;;;;;16.93;9.83;;;;;;;1.18;77.76;98980.16;5040267;28;20064;-74
2020/12/12 04:16:15;;;;;;;14.37;9.33;;;;;;;1.18;78.31;98975.88;5050539;28;20049;-74
2020/12/12 04:18:40;;;;;;;17.00;10.87;;;;;;;1.22;78.13;98982.81;5042380;28;20033;-74
2020/12/12 04:21:07;;;;;;;17.50;10.83;;;;;;;1.25;78.01;98977.63;5042561;28;20083;-74
2020/12/12 04:23:32;;;;;;;16.37;10.40;;;;;;;1.28;78.13;98980.28;5026432;28;20033;-74
2020/12/12 04:25:57;;;;;;;16.47;10.73;;;;;;;1.29;78.04;98978.53;5045566;28;20037;-74
2020/12/12 04:28:23;;;;;;;15.93;10.17;;;;;;;1.29;77.85;98976.81;5065564;28;20029;-74
2020/12/12 04:30:48;;;;;;;17.50;11.03;;;;;;;1.31;77.48;98977.69;5062833;28;20085;-74
2020/12/12 04:33:14;;;;;;;14.40;9.67;;;;;;;1.33;77.90;98982.00;5053594;28;20037;-74
2020/12/12 04:35:39;;;;;;;18.20;10.07;;;;;;;1.34;77.85;98971.63;5059518;28;20024;-74
2020/12/12 04:38:04;;;;;;;16.20;9.70;;;;;;;1.35;77.59;98975.97;5055050;28;20510;-74
2020/12/12 04:40:31;;;;;;;14.17;8.27;;;;;;;1.39;77.88;98976.84;5021280;28;20678;-74
2020/12/12 04:42:57;;;;;;;18.73;11.33;;;;;;;1.42;77.64;98971.69;5042339;28;20128;-74
2020/12/12 04:45:23;;;;;;;18.00;10.23;;;;;;;1.46;78.07;98970.81;5042572;28;20041;-74
2020/12/12 04:47:50;;;;;;;12.68;8.80;;;;;;;1.48;77.78;98962.16;5051216;28;20036;-74
2020/12/12 04:50:17;;;;;;;11.73;8.00;;;;;;;1.47;77.44;98963.03;5045735;28;20044;-74
2020/12/12 04:52:43;;;;;;;16.35;9.38;;;;;;;1.52;77.66;98960.47;5043914;28;20037;-74
2020/12/12 04:55:10;;;;;;;15.25;9.43;;;;;;;1.57;77.39;98965.69;5042370;28;20049;-74
2020/12/12 04:57:37;;;;;;;15.57;10.13;;;;;;;1.61;77.20;98963.09;5025072;28;20041;-74
2020/12/12 05:00:11;;;;;;;18.50;11.10;;;;;;;1.64;77.29;98965.72;5027668;28;20021;-74
2020/12/12 05:02:37;;;;;;;14.02;8.85;;;;;;;1.66;77.38;98961.41;5044643;28;20032;-74
2020/12/12 05:05:07;;;;;;;14.87;10.00;;;;;;;1.69;77.73;98952.75;5042205;28;20037;-74
2020/12/12 05:07:32;;;;;;;15.00;9.60;;;;;;;1.74;77.43;98964.91;5042176;28;20056;-74
2020/12/12 05:09:58;;;;;;;15.95;10.57;;;;;;;1.81;77.47;98965.81;5045304;28;20040;-74
2020/12/12 05:12:24;;;;;;;15.90;9.35;;;;;;;1.89;77.06;98965.84;5045263;28;20036;-74
2020/12/12 05:14:50;;;;;;;15.50;9.60;;;;;;;1.91;76.86;98964.97;5043017;28;20025;-74
2020/12/12 05:17:16;;;;;;;15.20;10.33;;;;;;;1.94;77.22;98957.19;5041917;28;20033;-74
2020/12/12 05:19:42;;;;;;;15.85;9.10;;;;;;;2.00;76.87;98964.13;5025277;28;20033;-74
2020/12/12 05:22:08;;;;;;;14.05;8.60;;;;;;;2.04;76.58;98967.59;5044999;28;20113;-74
2020/12/12 05:24:34;;;;;;;11.80;7.33;;;;;;;2.05;76.91;98966.75;5027129;28;20541;-75
2020/12/12 05:27:00;;;;;;;12.82;7.60;;;;;;;2.08;76.54;98966.75;5041839;28;20042;-74
2020/12/12 05:29:25;;;;;;;10.67;6.90;;;;;;;2.11;76.72;98965.03;5023661;28;20033;-74
2020/12/12 05:31:54;;;;;;;10.43;6.97;;;;;;;2.14;76.24;98962.41;5039933;28;20041;-74
2020/12/12 05:34:20;;;;;;;10.75;7.03;;;;;;;2.16;76.36;98959.84;5040825;28;20136;-74
2020/12/12 05:36:45;;;;;;;13.88;7.25;;;;;;;2.16;75.86;98960.69;5043388;28;20499;-74
2020/12/12 05:39:12;;;;;;;13.40;7.82;;;;;;;2.18;75.88;98958.97;5044950;28;20028;-74
2020/12/12 05:41:38;;;;;;;10.50;6.32;;;;;;;2.23;76.15;98959.00;5043960;28;20557;-76
2020/12/12 05:44:04;;;;;;;10.32;6.80;;;;;;;2.25;76.12;98966.78;5041088;28;20037;-75
2020/12/12 05:46:30;;;;;;;10.77;6.63;;;;;;;2.26;75.57;98959.00;5041226;28;20116;-74
2020/12/12 05:48:56;;;;;;;10.85;7.07;;;;;;;2.28;75.77;98966.78;5040004;28;20535;-74
2020/12/12 05:51:21;;;;;;;11.48;6.97;;;;;;;2.26;76.05;98961.59;5041231;28;20124;-73
2020/12/12 05:53:48;;;;;;;12.07;7.65;;;;;;;2.26;76.18;98963.34;5043151;28;20124;-73
2020/12/12 05:56:14;;;;;;;9.70;6.50;;;;;;;2.27;75.81;98962.47;5051121;28;20123;-74
2020/12/12 05:58:40;;;;;;;9.60;6.65;;;;;;;2.27;75.86;98967.66;5060783;28;20472;-74
2020/12/12 06:01:14;;;;;;;10.68;6.90;;;;;;;2.29;75.79;98963.34;5061241;28;20036;-74
2020/12/12 06:03:52;;;;;;;10.77;7.00;;;;;;;2.32;75.50;98965.94;5041128;28;20029;-74
2020/12/12 06:06:21;;;;;;;10.88;6.60;;;;;;;2.34;75.13;98970.28;5039056;28;20064;-73
2020/12/12 06:08:58;;;;;;;9.10;5.60;;;;;;;2.35;75.23;98965.94;5041043;28;20049;-73
2020/12/12 06:11:24;;;;;;;9.85;6.47;;;;;;;2.38;75.38;98968.53;5042626;28;20156;-74
2020/12/12 06:13:57;;;;;;;9.98;6.55;;;;;;;2.36;75.25;98962.50;5039864;28;20056;-74
2020/12/12 06:16:25;;;;;;;9.50;6.25;;;;;;;2.38;75.23;98961.63;5040174;28;20042;-74
2020/12/12 06:19:07;;;;;;;9.20;5.85;;;;;;;2.39;75.01;98967.69;5043219;28;20048;-74
2020/12/12 06:21:36;;;;;;;10.05;6.20;;;;;;;2.43;74.82;98964.22;5044043;28;20032;-74
2020/12/12 06:24:06;;;;;;;9.60;5.82;;;;;;;2.43;75.43;98969.41;5040391;28;20053;-74
2020/12/12 06:26:35;;;;;;;9.50;5.90;;;;;;;2.43;74.79;98964.22;5022640;28;20041;-73
2020/12/12 06:29:00;;;;;;;8.35;5.25;;;;;;;2.44;75.18;98971.19;5040407;28;20037;-74
2020/12/12 06:31:26;;;;;;;9.75;5.93;;;;;;;2.47;74.85;98971.19;5040449;28;20048;-73
2020/12/12 06:33:53;;;;;;;8.15;5.30;;;;;;;2.48;74.77;98972.91;5021953;28;20056;-73
2020/12/12 06:36:43;;;;;;;8.20;5.43;;;;;;;2.47;74.13;98976.38;5040457;28;20038;-73
2020/12/12 06:39:24;;;;;;;8.95;5.63;;;;;;;2.51;74.36;98972.03;5040760;28;20476;-74
2020/12/12 06:41:59;;;;;;;8.52;5.43;;;;;;;2.54;74.92;98977.25;5050024;28;20040;-73
2020/12/12 06:44:31;;;;;;;8.40;5.32;;;;;;;2.55;74.49;98985.06;5056884;28;20483;-74
2020/12/12 06:46:56;;;;;;;8.95;5.70;;;;;;;2.58;75.04;98976.41;5042887;28;20048;-74
2020/12/12 06:49:22;;;;;;;8.73;5.72;;;;;;;2.57;74.38;98985.09;5043554;28;20109;-74
2020/12/12 06:51:49;;;;;;;9.75;6.15;;;;;;;2.56;75.00;98986.81;5023680;28;20669;-74
2020/12/12 06:54:14;;;;;;;8.38;5.55;;;;;;;2.58;74.36;98986.81;5042164;28;20553;-75
2020/12/12 06:56:39;;;;;;;8.02;4.85;;;;;;;2.60;74.37;98988.56;5053086;28;20119;-74
2020/12/12 06:59:25;;;;;;;8.95;5.40;;;;;;;2.64;74.00;98982.47;5061980;28;20408;-73
2020/12/12 07:01:53;;;;;;;9.02;6.38;;;;;;;2.68;74.28;98985.09;5044217;28;20040;-70
2020/12/12 07:04:29;;;;;;;9.40;6.05;;;;;;;2.71;74.13;98985.09;5043194;28;20059;-71
2020/12/12 07:06:56;;;;;;;10.18;5.78;;;;;;;2.75;74.13;98984.22;5022496;28;20606;-71
2020/12/12 07:09:23;;;;;;;9.27;5.38;;;;;;;2.77;74.18;98996.38;5039830;28;20120;-71
2020/12/12 07:11:48;;;;;;;8.50;5.90;;;;;;;2.77;73.91;98998.13;5042064;28;20541;-70
2020/12/12 07:14:14;;;;;;;9.45;5.53;;;;;;;2.78;74.05;98998.13;5042905;28;20119;-70
2020/12/12 07:16:39;;;;;;;8.50;5.97;;;;;;;2.84;74.07;99007.69;5042377;28;20549;-70
2020/12/12 07:19:04;;;;;;;8.63;5.65;;;;;;;2.79;73.43;99006.81;5039601;28;20419;-71
2020/12/12 07:21:30;;;;;;;8.65;6.05;;;;;;;2.78;73.97;98999.88;5039584;28;20151;-70
2020/12/12 07:23:55;;;;;;;8.38;5.35;;;;;;;2.79;73.73;99009.41;5042500;28;20072;-70
2020/12/12 07:26:20;;;;;;;9.32;5.45;;;;;;;2.84;73.77;99010.28;5043122;28;20033;-70
2020/12/12 07:28:45;;;;;;;6.65;4.70;;;;;;;2.79;73.95;99010.28;5041181;28;20399;-71
2020/12/12 07:31:11;;;;;;;7.03;4.95;;;;;;;2.82;73.73;99019.84;5039519;28;20399;-71
2020/12/12 07:33:36;;;;;;;9.02;5.63;;;;;;;2.87;73.61;99025.06;5040385;28;20540;-71
2020/12/12 07:36:02;;;;;;;9.02;5.75;;;;;;;2.90;73.57;99027.66;5043234;28;20056;-70
2020/12/12 07:38:27;;;;;;;8.00;5.65;;;;;;;2.88;73.76;99024.19;5042990;28;20068;-70
2020/12/12 07:40:53;;;;;;;11.63;7.20;;;;;;;2.92;73.45;99025.94;5039906;28;20136;-71
2020/12/12 07:43:19;;;;;;;10.63;6.13;;;;;;;2.95;73.54;99029.38;5039072;28;20044;-70
2020/12/12 07:48:10;;;;;;;8.25;5.68;;;;;;;3.04;73.36;99032.00;5042734;28;20040;-71
2020/12/12 07:50:37;;;;;;;8.63;5.88;;;;;;;3.08;73.39;99027.66;5042006;28;20411;-70
2020/12/12 07:53:13;;;;;;;8.95;5.70;;;;;;;3.11;73.12;99032.88;5038934;28;20068;-70
2020/12/12 07:55:44;;;;;;;8.85;5.45;;;;;;;3.10;73.55;99040.72;5022507;28;20033;-70
2020/12/12 07:58:20;;;;;;;9.45;5.97;;;;;;;3.08;73.26;99032.88;5029330;28;20032;-71
2020/12/12 08:00:45;;;;;;;8.98;5.15;;;;;;;3.13;73.24;99040.69;5048348;28;20029;-70
2020/12/12 08:03:10;;;;;;;9.25;6.30;;;;;;;3.18;73.00;99044.19;5043042;28;20029;-70
2020/12/12 08:05:36;;;;;;;9.32;5.50;;;;;;;3.25;73.14;99051.13;5043865;28;20045;-70
2020/12/12 08:08:11;;;;;;;9.00;5.60;;;;;;;3.28;72.54;99045.91;5046687;28;20041;-70
2020/12/12 08:10:36;;;;;;;9.07;5.70;;;;;;;3.33;72.71;99052.00;5045763;28;20037;-70
2020/12/12 08:13:02;;;;;;;8.57;5.68;;;;;;;3.34;72.60;99048.50;5042840;28;20091;-70
2020/12/12 08:15:36;;;;;;;8.82;5.38;;;;;;;3.39;72.41;99053.72;5043157;28;20061;-70
2020/12/12 08:18:14;;;;;;;8.23;5.40;;;;;;;3.40;72.10;99051.09;5025367;28;20033;-70
2020/12/12 08:20:40;;;;;;;8.00;5.53;;;;;;;3.43;72.38;99051.13;5043843;28;20453;-70
2020/12/12 08:23:06;;;;;;;7.50;5.22;;;;;;;3.42;72.43;99059.78;5046124;28;20124;-69
2020/12/12 08:25:34;;;;;;;8.82;5.85;;;;;;;3.41;72.03;99052.84;5046407;28;20033;-70
2020/12/12 08:28:04;;;;;;;9.50;6.38;;;;;;;3.45;71.96;99051.97;5042847;28;20037;-70
2020/12/12 08:30:29;;;;;;;10.80;6.35;;;;;;;3.49;71.98;99055.47;5042710;28;20030;-70
2020/12/12 08:32:56;;;;;;;8.27;5.85;;;;;;;3.46;71.93;99052.84;5048198;28;20123;-71
2020/12/12 08:35:25;;;;;;;8.63;5.40;;;;;;;3.54;72.01;99060.66;5046098;28;20484;-70
2020/12/12 08:38:05;;;;;;;9.52;6.30;;;;;;;3.57;71.91;99052.84;5043661;28;20029;-70
2020/12/12 08:40:33;;;;;;;8.15;5.50;;;;;;;3.64;71.76;99058.03;5042518;28;20065;-70
2020/12/12 08:43:07;;;;;;;9.65;6.53;;;;;;;3.66;71.65;99060.63;5042315;28;20116;-70
2020/12/12 08:45:36;;;;;;;7.97;5.00;;;;;;;3.70;71.88;99059.78;5042882;28;20033;-70
2020/12/12 08:48:10;;;;;;;9.18;5.43;;;;;;;3.73;71.74;99067.59;5045839;28;20103;-69
2020/12/12 08:50:46;;;;;;;9.23;5.80;;;;;;;3.75;71.52;99065.84;5045344;28;20070;-69
2020/12/12 08:53:28;;;;;;;8.25;5.90;;;;;;;3.76;71.71;99075.41;5041913;28;20029;-69
2020/12/12 08:56:07;;;;;;;9.20;6.07;;;;;;;3.81;71.53;99078.00;5052008;28;20123;-69
2020/12/12 08:58:36;;;;;;;9.52;6.20;;;;;;;3.88;71.67;99082.34;5059588;28;20042;-68
2020/12/12 09:01:16;;;;;;;8.90;5.97;;;;;;;3.87;71.20;99089.28;5060179;28;20563;-68
2020/12/12 09:04:02;;;;;;;9.05;6.20;;;;;;;3.88;71.02;99090.19;5042249;28;20475;-69
2020/12/12 09:06:35;;;;;;;8.93;6.18;;;;;;;3.93;71.65;99094.50;5040236;28;20060;-69
2020/12/12 09:09:20;;;;;;;12.90;9.10;;;;;;;4.00;71.42;99089.28;5039158;28;20037;-69
2020/12/12 09:12:00;;;;;;;10.20;7.82;;;;;;;4.08;71.40;99093.59;5041888;28;20042;-68
2020/12/12 09:14:31;;;;;;;10.50;6.57;;;;;;;4.10;71.63;99096.22;5043714;28;20037;-69
2020/12/12 09:16:58;;;;;;;10.20;6.25;;;;;;;4.15;71.70;99099.66;5042069;28;20041;-69
2020/12/12 09:19:25;;;;;;;8.60;5.65;;;;;;;4.11;71.54;99103.16;5041813;28;20034;-69
2020/12/12 09:21:50;;;;;;;9.75;6.13;;;;;;;4.10;71.56;99101.44;5044226;28;20120;-69
2020/12/12 09:24:18;;;;;;;9.25;6.10;;;;;;;4.15;71.44;99110.13;5045019;28;20178;-69
2020/12/12 09:26:44;;;;;;;9.35;5.82;;;;;;;4.16;71.56;99098.78;5043589;28;20040;-69
2020/12/12 09:29:09;;;;;;;8.07;5.50;;;;;;;4.21;71.66;99104.00;5041567;28;20033;-68
2020/12/12 09:31:34;;;;;;;8.90;5.57;;;;;;;4.24;71.80;99110.06;5041868;28;20032;-70
2020/12/12 09:34:00;;;;;;;8.65;5.68;;;;;;;4.25;71.21;99111.81;5044794;28;20049;-70
2020/12/12 09:36:25;;;;;;;8.02;5.22;;;;;;;4.23;71.61;99110.09;5044954;28;20060;-68
2020/12/12 09:38:51;;;;;;;8.27;5.60;;;;;;;4.25;71.35;99113.56;5042435;28;20025;-70
2020/12/12 09:41:17;;;;;;;8.48;5.80;;;;;;;4.23;71.90;99116.19;5041334;28;20460;-69
2020/12/12 09:43:43;;;;;;;7.97;5.68;;;;;;;4.27;72.11;99117.91;5043257;28;20098;-70
2020/12/12 09:46:08;;;;;;;7.70;4.72;;;;;;;4.33;71.39;99120.50;5059914;28;20029;-70
2020/12/12 09:48:35;;;;;;;8.52;5.18;;;;;;;4.43;71.68;99126.56;5059412;28;20119;-69
2020/12/12 09:51:01;;;;;;;6.70;4.63;;;;;;;4.50;71.80;99125.66;5039171;28;20033;-69
2020/12/12 09:53:26;;;;;;;8.88;5.57;;;;;;;4.53;71.39;99127.38;5039972;28;20043;-70
2020/12/12 09:55:53;;;;;;;7.60;5.53;;;;;;;4.60;71.09;99127.34;5062996;28;20079;-69
2020/12/12 09:58:19;;;;;;;8.75;5.93;;;;;;;4.67;71.10;99122.97;5051293;28;20032;-69
2020/12/12 10:00:44;;;;;;;9.38;6.20;;;;;;;4.73;70.78;99115.09;5061708;28;20028;-70
2020/12/12 10:03:10;;;;;;;8.32;5.78;;;;;;;4.80;70.89;99119.41;5052697;28;20055;-69
2020/12/12 10:05:36;;;;;;;8.40;5.88;;;;;;;4.89;70.90;99120.25;5041449;28;20044;-70
2020/12/12 10:08:03;;;;;;;7.85;5.45;;;;;;;4.94;70.93;99114.09;5044477;28;20411;-69
2020/12/12 10:10:30;;;;;;;7.85;5.70;;;;;;;4.98;70.65;99115.84;5044091;28;20028;-69
2020/12/12 10:12:55;;;;;;;9.50;6.22;;;;;;;4.96;71.22;99112.34;5041014;28;20439;-69
2020/12/12 10:15:22;;;;;;;7.85;5.03;;;;;;;5.00;71.29;99119.31;5040768;28;20041;-69
2020/12/12 10:17:48;;;;;;;8.13;5.07;;;;;;;5.10;70.78;99114.88;5042695;28;20037;-69
2020/12/12 10:20:14;;;;;;;8.82;5.68;;;;;;;5.15;70.35;99114.84;5043926;28;20032;-69
2020/12/12 10:22:40;;;;;;;9.45;5.50;;;;;;;5.19;70.64;99124.41;5042901;28;20037;-69
2020/12/12 10:25:06;;;;;;;10.02;7.15;;;;;;;5.22;70.68;99127.88;5040582;28;20087;-69
2020/12/12 10:27:32;;;;;;;9.93;6.75;;;;;;;5.30;70.25;99126.97;5040643;28;20048;-69
2020/12/12 10:29:57;;;;;;;8.73;6.35;;;;;;;5.30;70.62;99121.72;5043618;28;20040;-69
2020/12/12 10:32:22;;;;;;;8.00;5.78;;;;;;;5.39;70.45;99125.13;5043704;28;20064;-69
2020/12/12 10:34:47;;;;;;;8.80;6.20;;;;;;;5.41;70.00;99125.13;5021158;28;20065;-69
2020/12/12 10:37:13;;;;;;;8.70;6.13;;;;;;;5.41;70.57;99128.59;5043817;28;20041;-70
2020/12/12 10:42:18;;;;;;;7.90;5.72;;;;;;;5.53;69.56;99118.91;5040129;28;20091;-69
2020/12/12 10:44:44;;;;;;;9.30;5.25;;;;;;;5.49;70.02;99123.31;5041730;28;20465;-69
2020/12/12 10:47:09;;;;;;;8.68;5.78;;;;;;;5.53;70.06;99119.81;5043658;28;20446;-69
2020/12/12 10:49:34;;;;;;;8.00;5.72;;;;;;;5.63;69.72;99110.09;5043096;28;20376;-70
2020/12/12 10:52:02;;;;;;;7.15;5.25;;;;;;;5.74;70.01;99118.75;5040084;28;20451;-69
2020/12/12 10:54:28;;;;;;;7.55;5.47;;;;;;;5.82;69.97;99118.69;5039818;28;20134;-69
2020/12/12 10:56:54;;;;;;;9.80;6.20;;;;;;;5.89;69.54;99118.59;5042851;28;20045;-70
2020/12/12 10:59:19;;;;;;;8.75;6.50;;;;;;;5.92;69.34;99129.03;5043226;28;20116;-69
2020/12/12 11:01:44;;;;;;;9.85;6.60;;;;;;;5.96;69.91;99118.56;5041686;28;20125;-69
2020/12/12 11:04:10;;;;;;;9.57;6.88;;;;;;;6.00;69.24;99121.13;5039652;28;20038;-69
2020/12/12 11:06:35;;;;;;;9.18;6.43;;;;;;;6.05;69.47;99114.09;5040204;28;20337;-69
2020/12/12 11:09:02;;;;;;;9.52;6.35;;;;;;;6.15;69.42;99125.34;5043201;28;20037;-69
2020/12/12 11:11:27;;;;;;;10.00;6.82;;;;;;;6.23;69.32;99117.38;5043291;28;20129;-69
2020/12/12 11:13:53;;;;;;;9.68;6.82;;;;;;;6.35;69.53;99117.25;5040173;28;20492;-69
2020/12/12 11:16:19;;;;;;;9.27;6.55;;;;;;;6.47;69.14;99118.84;5039819;28;20088;-70
2020/12/12 11:18:48;;;;;;;8.65;6.55;;;;;;;6.56;68.89;99117.00;5041295;28;20415;-68
2020/12/12 11:21:17;;;;;;;10.70;7.35;;;;;;;6.69;68.90;99116.84;5043076;28;20029;-69
2020/12/12 11:23:43;;;;;;;9.85;7.32;;;;;;;6.81;68.94;99116.66;5041369;28;20056;-69
2020/12/12 11:26:08;;;;;;;9.70;7.47;;;;;;;6.94;68.25;99115.63;5039532;28;20492;-69
2020/12/12 11:28:33;;;;;;;9.15;6.95;;;;;;;7.07;67.87;99111.06;5039640;28;20037;-69
2020/12/12 11:30:58;;;;;;;10.43;7.10;;;;;;;7.16;68.04;99112.69;5042885;28;20151;-69
2020/12/12 11:33:24;;;;;;;10.80;7.28;;;;;;;7.22;68.21;99107.34;5042237;28;20041;-70
2020/12/12 11:38:23;;;;;;;10.63;6.93;;;;;;;7.30;68.22;99109.84;5039427;28;20079;-70